sensor_id;sensor_type;location;lat;lon;timestamp;P1;durP1;ratioP1;P2;durP2;ratioP2
41865;SDS011;27539;43.222;27.558;2023-05-24T00:02:13;6.70;;;3.53;;
41865;SDS011;27539;43.222;27.558;2023-05-24T00:04:39;7.90;;;4.68;;
41865;SDS011;27539;43.222;27.558;2023-05-24T00:07:05;4.35;;;3.83;;
41865;SDS011;27539;43.222;27.558;2023-05-24T00:09:30;5.97;;;3.85;;
41865;SDS011;27539;43.222;27.558;2023-05-24T00:11:56;4.22;;;3.50;;
41865;SDS011;27539;43.222;27.558;2023-05-24T00:14:21;6.55;;;3.40;;
41865;SDS011;27539;43.222;27.558;2023-05-24T00:16:47;8.00;;;4.65;;
41865;SDS011;27539;43.222;27.558;2023-05-24T00:19:12;5.75;;;4.45;;
41865;SDS011;27539;43.222;27.558;2023-05-24T00:21:42;6.20;;;4.07;;
41865;SDS011;27539;43.222;27.558;2023-05-24T00:24:07;6.00;;;3.80;;
41865;SDS011;27539;43.222;27.558;2023-05-24T00:26:35;7.45;;;4.20;;
41865;SDS011;27539;43.222;27.558;2023-05-24T00:29:00;5.13;;;3.55;;
41865;SDS011;27539;43.222;27.558;2023-05-24T00:31:25;14.23;;;4.25;;
41865;SDS011;27539;43.222;27.558;2023-05-24T00:33:50;5.07;;;3.55;;
41865;SDS011;27539;43.222;27.558;2023-05-24T00:36:16;4.43;;;3.60;;
41865;SDS011;27539;43.222;27.558;2023-05-24T00:38:41;3.45;;;3.15;;
41865;SDS011;27539;43.222;27.558;2023-05-24T00:41:06;4.63;;;3.47;;
41865;SDS011;27539;43.222;27.558;2023-05-24T00:43:31;5.95;;;4.10;;
41865;SDS011;27539;43.222;27.558;2023-05-24T00:48:31;5.43;;;4.22;;
41865;SDS011;27539;43.222;27.558;2023-05-24T00:50:56;4.50;;;3.60;;
41865;SDS011;27539;43.222;27.558;2023-05-24T00:53:22;9.85;;;4.13;;
41865;SDS011;27539;43.222;27.558;2023-05-24T00:55:47;6.40;;;4.25;;
41865;SDS011;27539;43.222;27.558;2023-05-24T00:58:12;9.20;;;4.75;;
41865;SDS011;27539;43.222;27.558;2023-05-24T01:00:38;10.52;;;4.35;;
41865;SDS011;27539;43.222;27.558;2023-05-24T01:03:04;5.32;;;4.07;;
41865;SDS011;27539;43.222;27.558;2023-05-24T01:05:29;7.05;;;5.22;;
41865;SDS011;27539;43.222;27.558;2023-05-24T01:08:13;6.90;;;4.70;;
41865;SDS011;27539;43.222;27.558;2023-05-24T01:10:49;12.90;;;4.75;;
41865;SDS011;27539;43.222;27.558;2023-05-24T01:13:34;15.98;;;4.00;;
41865;SDS011;27539;43.222;27.558;2023-05-24T01:16:06;5.88;;;4.05;;
41865;SDS011;27539;43.222;27.558;2023-05-24T01:18:37;8.45;;;4.32;;
41865;SDS011;27539;43.222;27.558;2023-05-24T01:24:08;8.18;;;4.72;;
41865;SDS011;27539;43.222;27.558;2023-05-24T01:26:42;8.27;;;3.65;;
41865;SDS011;27539;43.222;27.558;2023-05-24T01:29:09;8.23;;;5.10;;
41865;SDS011;27539;43.222;27.558;2023-05-24T01:31:35;8.98;;;4.88;;
41865;SDS011;27539;43.222;27.558;2023-05-24T01:34:00;8.25;;;5.20;;
41865;SDS011;27539;43.222;27.558;2023-05-24T01:36:26;12.45;;;6.05;;
41865;SDS011;27539;43.222;27.558;2023-05-24T01:38:51;7.45;;;5.00;;
41865;SDS011;27539;43.222;27.558;2023-05-24T01:43:51;11.35;;;4.85;;
41865;SDS011;27539;43.222;27.558;2023-05-24T01:49:05;6.65;;;5.40;;
41865;SDS011;27539;43.222;27.558;2023-05-24T01:51:37;7.53;;;4.30;;
41865;SDS011;27539;43.222;27.558;2023-05-24T01:54:05;5.35;;;4.25;;
41865;SDS011;27539;43.222;27.558;2023-05-24T01:56:30;8.77;;;3.58;;
41865;SDS011;27539;43.222;27.558;2023-05-24T01:58:56;6.22;;;4.63;;
41865;SDS011;27539;43.222;27.558;2023-05-24T02:03:48;7.13;;;4.55;;
41865;SDS011;27539;43.222;27.558;2023-05-24T02:06:14;9.43;;;2.83;;
41865;SDS011;27539;43.222;27.558;2023-05-24T02:08:39;6.78;;;3.47;;
41865;SDS011;27539;43.222;27.558;2023-05-24T02:11:04;9.43;;;4.63;;
41865;SDS011;27539;43.222;27.558;2023-05-24T02:13:29;4.40;;;4.00;;
41865;SDS011;27539;43.222;27.558;2023-05-24T02:15:55;10.35;;;3.92;;
41865;SDS011;27539;43.222;27.558;2023-05-24T02:18:20;9.52;;;3.90;;
41865;SDS011;27539;43.222;27.558;2023-05-24T02:20:46;6.22;;;4.00;;
41865;SDS011;27539;43.222;27.558;2023-05-24T02:23:12;6.82;;;3.67;;
41865;SDS011;27539;43.222;27.558;2023-05-24T02:25:37;4.68;;;2.88;;
41865;SDS011;27539;43.222;27.558;2023-05-24T02:28:02;3.97;;;3.13;;
41865;SDS011;27539;43.222;27.558;2023-05-24T02:30:27;5.60;;;4.25;;
41865;SDS011;27539;43.222;27.558;2023-05-24T02:32:53;7.70;;;3.83;;
41865;SDS011;27539;43.222;27.558;2023-05-24T02:35:18;5.20;;;3.30;;
41865;SDS011;27539;43.222;27.558;2023-05-24T02:37:43;10.65;;;4.97;;
41865;SDS011;27539;43.222;27.558;2023-05-24T02:40:09;6.40;;;4.57;;
41865;SDS011;27539;43.222;27.558;2023-05-24T02:42:34;7.28;;;4.18;;
41865;SDS011;27539;43.222;27.558;2023-05-24T02:45:00;3.53;;;3.13;;
41865;SDS011;27539;43.222;27.558;2023-05-24T02:47:25;4.88;;;3.33;;
41865;SDS011;27539;43.222;27.558;2023-05-24T02:49:51;5.78;;;2.95;;
41865;SDS011;27539;43.222;27.558;2023-05-24T02:52:16;4.15;;;3.78;;
41865;SDS011;27539;43.222;27.558;2023-05-24T02:54:45;4.63;;;3.63;;
41865;SDS011;27539;43.222;27.558;2023-05-24T02:57:11;13.02;;;3.42;;
41865;SDS011;27539;43.222;27.558;2023-05-24T02:59:36;2.95;;;2.65;;
41865;SDS011;27539;43.222;27.558;2023-05-24T03:02:02;5.53;;;3.70;;
41865;SDS011;27539;43.222;27.558;2023-05-24T03:04:27;4.43;;;3.45;;
41865;SDS011;27539;43.222;27.558;2023-05-24T03:06:52;6.40;;;3.22;;
41865;SDS011;27539;43.222;27.558;2023-05-24T03:09:18;3.92;;;3.25;;
41865;SDS011;27539;43.222;27.558;2023-05-24T03:11:43;4.10;;;3.53;;
41865;SDS011;27539;43.222;27.558;2023-05-24T03:14:09;6.25;;;3.25;;
41865;SDS011;27539;43.222;27.558;2023-05-24T03:16:35;6.53;;;3.55;;
41865;SDS011;27539;43.222;27.558;2023-05-24T03:19:00;6.43;;;3.85;;
41865;SDS011;27539;43.222;27.558;2023-05-24T03:21:26;3.13;;;2.67;;
41865;SDS011;27539;43.222;27.558;2023-05-24T03:23:51;3.60;;;2.72;;
41865;SDS011;27539;43.222;27.558;2023-05-24T03:26:16;3.80;;;2.88;;
41865;SDS011;27539;43.222;27.558;2023-05-24T03:28:43;2.00;;;1.80;;
41865;SDS011;27539;43.222;27.558;2023-05-24T03:31:09;5.95;;;2.70;;
41865;SDS011;27539;43.222;27.558;2023-05-24T03:33:34;4.80;;;3.33;;
41865;SDS011;27539;43.222;27.558;2023-05-24T03:35:59;8.82;;;3.78;;
41865;SDS011;27539;43.222;27.558;2023-05-24T03:38:25;4.30;;;2.92;;
41865;SDS011;27539;43.222;27.558;2023-05-24T03:40:50;10.68;;;3.78;;
41865;SDS011;27539;43.222;27.558;2023-05-24T03:43:15;5.05;;;2.70;;
41865;SDS011;27539;43.222;27.558;2023-05-24T03:45:41;3.22;;;2.97;;
41865;SDS011;27539;43.222;27.558;2023-05-24T03:48:06;4.63;;;3.00;;
41865;SDS011;27539;43.222;27.558;2023-05-24T03:50:32;4.00;;;3.38;;
41865;SDS011;27539;43.222;27.558;2023-05-24T03:52:57;5.22;;;2.20;;
41865;SDS011;27539;43.222;27.558;2023-05-24T03:55:23;6.97;;;4.28;;
41865;SDS011;27539;43.222;27.558;2023-05-24T03:57:48;3.78;;;3.35;;
41865;SDS011;27539;43.222;27.558;2023-05-24T04:00:13;6.20;;;2.40;;
41865;SDS011;27539;43.222;27.558;2023-05-24T04:02:39;22.58;;;4.78;;
41865;SDS011;27539;43.222;27.558;2023-05-24T04:05:05;4.85;;;2.55;;
41865;SDS011;27539;43.222;27.558;2023-05-24T04:07:34;5.47;;;1.70;;
41865;SDS011;27539;43.222;27.558;2023-05-24T04:10:01;9.02;;;3.55;;
41865;SDS011;27539;43.222;27.558;2023-05-24T04:12:26;3.40;;;2.90;;
41865;SDS011;27539;43.222;27.558;2023-05-24T04:14:52;3.50;;;2.58;;
41865;SDS011;27539;43.222;27.558;2023-05-24T04:17:17;6.28;;;3.80;;
41865;SDS011;27539;43.222;27.558;2023-05-24T04:19:42;6.45;;;3.80;;
41865;SDS011;27539;43.222;27.558;2023-05-24T04:22:07;3.72;;;3.25;;
41865;SDS011;27539;43.222;27.558;2023-05-24T04:24:33;2.67;;;2.47;;
41865;SDS011;27539;43.222;27.558;2023-05-24T04:26:58;4.15;;;2.08;;
41865;SDS011;27539;43.222;27.558;2023-05-24T04:29:23;3.42;;;2.58;;
41865;SDS011;27539;43.222;27.558;2023-05-24T04:31:50;3.90;;;3.35;;
41865;SDS011;27539;43.222;27.558;2023-05-24T04:34:16;1.95;;;1.65;;
41865;SDS011;27539;43.222;27.558;2023-05-24T04:36:41;5.97;;;3.45;;
41865;SDS011;27539;43.222;27.558;2023-05-24T04:39:06;4.53;;;2.53;;
41865;SDS011;27539;43.222;27.558;2023-05-24T04:41:32;3.33;;;3.03;;
41865;SDS011;27539;43.222;27.558;2023-05-24T04:43:59;2.90;;;2.50;;
41865;SDS011;27539;43.222;27.558;2023-05-24T04:46:24;2.08;;;1.98;;
41865;SDS011;27539;43.222;27.558;2023-05-24T04:48:51;3.47;;;2.83;;
41865;SDS011;27539;43.222;27.558;2023-05-24T04:51:16;2.90;;;2.15;;
41865;SDS011;27539;43.222;27.558;2023-05-24T04:53:41;2.90;;;2.67;;
41865;SDS011;27539;43.222;27.558;2023-05-24T04:56:07;2.35;;;2.15;;
41865;SDS011;27539;43.222;27.558;2023-05-24T04:58:32;2.53;;;2.22;;
41865;SDS011;27539;43.222;27.558;2023-05-24T05:00:59;4.07;;;2.92;;
41865;SDS011;27539;43.222;27.558;2023-05-24T05:03:24;2.55;;;2.25;;
41865;SDS011;27539;43.222;27.558;2023-05-24T05:05:50;6.70;;;3.42;;
41865;SDS011;27539;43.222;27.558;2023-05-24T05:08:15;4.05;;;3.40;;
41865;SDS011;27539;43.222;27.558;2023-05-24T05:10:40;5.38;;;3.85;;
41865;SDS011;27539;43.222;27.558;2023-05-24T05:13:06;4.07;;;2.83;;
41865;SDS011;27539;43.222;27.558;2023-05-24T05:15:31;3.90;;;3.33;;
41865;SDS011;27539;43.222;27.558;2023-05-24T05:17:57;5.93;;;2.47;;
41865;SDS011;27539;43.222;27.558;2023-05-24T05:20:23;7.25;;;3.22;;
41865;SDS011;27539;43.222;27.558;2023-05-24T05:22:48;4.38;;;2.38;;
41865;SDS011;27539;43.222;27.558;2023-05-24T05:25:14;3.72;;;2.47;;
41865;SDS011;27539;43.222;27.558;2023-05-24T05:27:39;3.42;;;2.55;;
41865;SDS011;27539;43.222;27.558;2023-05-24T05:30:04;4.65;;;2.78;;
41865;SDS011;27539;43.222;27.558;2023-05-24T05:32:30;2.53;;;2.28;;
41865;SDS011;27539;43.222;27.558;2023-05-24T05:34:55;2.05;;;1.85;;
41865;SDS011;27539;43.222;27.558;2023-05-24T05:37:20;2.73;;;2.33;;
41865;SDS011;27539;43.222;27.558;2023-05-24T05:39:46;2.20;;;1.42;;
41865;SDS011;27539;43.222;27.558;2023-05-24T05:42:11;4.25;;;2.25;;
41865;SDS011;27539;43.222;27.558;2023-05-24T05:44:36;1.53;;;1.43;;
41865;SDS011;27539;43.222;27.558;2023-05-24T05:47:02;3.40;;;1.73;;
41865;SDS011;27539;43.222;27.558;2023-05-24T05:49:28;2.47;;;2.28;;
41865;SDS011;27539;43.222;27.558;2023-05-24T05:51:55;2.00;;;1.52;;
41865;SDS011;27539;43.222;27.558;2023-05-24T05:54:20;4.22;;;2.53;;
41865;SDS011;27539;43.222;27.558;2023-05-24T05:56:46;1.60;;;1.33;;
41865;SDS011;27539;43.222;27.558;2023-05-24T05:59:12;2.28;;;1.63;;
41865;SDS011;27539;43.222;27.558;2023-05-24T06:01:38;3.80;;;2.25;;
41865;SDS011;27539;43.222;27.558;2023-05-24T06:04:04;11.63;;;2.13;;
41865;SDS011;27539;43.222;27.558;2023-05-24T06:06:29;4.00;;;2.92;;
41865;SDS011;27539;43.222;27.558;2023-05-24T06:08:55;2.75;;;1.92;;
41865;SDS011;27539;43.222;27.558;2023-05-24T06:11:20;2.85;;;1.40;;
41865;SDS011;27539;43.222;27.558;2023-05-24T06:13:45;1.77;;;1.37;;
41865;SDS011;27539;43.222;27.558;2023-05-24T06:16:11;3.30;;;1.60;;
41865;SDS011;27539;43.222;27.558;2023-05-24T06:18:36;2.30;;;2.10;;
41865;SDS011;27539;43.222;27.558;2023-05-24T06:21:01;2.42;;;2.22;;
41865;SDS011;27539;43.222;27.558;2023-05-24T06:23:27;9.13;;;2.55;;
41865;SDS011;27539;43.222;27.558;2023-05-24T06:25:52;2.20;;;1.63;;
41865;SDS011;27539;43.222;27.558;2023-05-24T06:28:17;2.15;;;1.58;;
41865;SDS011;27539;43.222;27.558;2023-05-24T06:30:42;3.83;;;1.92;;
41865;SDS011;27539;43.222;27.558;2023-05-24T06:33:08;2.00;;;1.80;;
41865;SDS011;27539;43.222;27.558;2023-05-24T06:35:33;3.35;;;1.60;;
41865;SDS011;27539;43.222;27.558;2023-05-24T06:37:58;2.27;;;2.07;;
41865;SDS011;27539;43.222;27.558;2023-05-24T06:40:24;2.17;;;1.90;;
41865;SDS011;27539;43.222;27.558;2023-05-24T06:42:49;3.97;;;2.00;;
41865;SDS011;27539;43.222;27.558;2023-05-24T06:45:15;2.17;;;1.23;;
41865;SDS011;27539;43.222;27.558;2023-05-24T06:47:40;2.00;;;1.23;;
41865;SDS011;27539;43.222;27.558;2023-05-24T06:50:05;3.00;;;1.43;;
41865;SDS011;27539;43.222;27.558;2023-05-24T06:52:31;2.90;;;1.55;;
41865;SDS011;27539;43.222;27.558;2023-05-24T06:54:56;3.07;;;1.23;;
41865;SDS011;27539;43.222;27.558;2023-05-24T06:57:21;2.80;;;0.97;;
41865;SDS011;27539;43.222;27.558;2023-05-24T06:59:47;2.67;;;1.57;;
41865;SDS011;27539;43.222;27.558;2023-05-24T07:02:15;1.47;;;1.37;;
41865;SDS011;27539;43.222;27.558;2023-05-24T07:04:41;1.83;;;1.50;;
41865;SDS011;27539;43.222;27.558;2023-05-24T07:07:06;1.83;;;1.50;;
41865;SDS011;27539;43.222;27.558;2023-05-24T07:09:32;1.58;;;1.30;;
41865;SDS011;27539;43.222;27.558;2023-05-24T07:11:58;3.73;;;2.10;;
41865;SDS011;27539;43.222;27.558;2023-05-24T07:14:23;1.83;;;1.67;;
41865;SDS011;27539;43.222;27.558;2023-05-24T07:16:49;3.55;;;1.98;;
41865;SDS011;27539;43.222;27.558;2023-05-24T07:19:15;2.78;;;2.33;;
41865;SDS011;27539;43.222;27.558;2023-05-24T07:21:40;4.83;;;1.77;;
41865;SDS011;27539;43.222;27.558;2023-05-24T07:24:05;3.60;;;1.60;;
41865;SDS011;27539;43.222;27.558;2023-05-24T07:26:31;5.87;;;2.23;;
41865;SDS011;27539;43.222;27.558;2023-05-24T07:28:56;4.07;;;2.33;;
41865;SDS011;27539;43.222;27.558;2023-05-24T07:31:21;6.47;;;2.20;;
41865;SDS011;27539;43.222;27.558;2023-05-24T07:33:47;5.07;;;2.53;;
41865;SDS011;27539;43.222;27.558;2023-05-24T07:36:12;4.93;;;2.67;;
41865;SDS011;27539;43.222;27.558;2023-05-24T07:38:37;3.33;;;2.07;;
41865;SDS011;27539;43.222;27.558;2023-05-24T07:41:04;2.33;;;1.60;;
41865;SDS011;27539;43.222;27.558;2023-05-24T07:43:30;2.83;;;1.95;;
41865;SDS011;27539;43.222;27.558;2023-05-24T07:45:56;1.57;;;1.30;;
41865;SDS011;27539;43.222;27.558;2023-05-24T07:48:21;2.27;;;1.57;;
41865;SDS011;27539;43.222;27.558;2023-05-24T07:50:48;2.80;;;1.13;;
41865;SDS011;27539;43.222;27.558;2023-05-24T07:53:14;0.80;;;0.80;;
41865;SDS011;27539;43.222;27.558;2023-05-24T07:55:39;0.93;;;0.90;;
41865;SDS011;27539;43.222;27.558;2023-05-24T07:58:04;2.00;;;1.10;;
41865;SDS011;27539;43.222;27.558;2023-05-24T08:00:30;6.17;;;1.70;;
41865;SDS011;27539;43.222;27.558;2023-05-24T08:02:58;1.00;;;0.90;;
41865;SDS011;27539;43.222;27.558;2023-05-24T08:05:23;2.20;;;1.30;;
41865;SDS011;27539;43.222;27.558;2023-05-24T08:07:48;1.83;;;1.03;;
41865;SDS011;27539;43.222;27.558;2023-05-24T08:10:14;2.63;;;1.63;;
41865;SDS011;27539;43.222;27.558;2023-05-24T08:12:39;0.70;;;0.70;;
41865;SDS011;27539;43.222;27.558;2023-05-24T08:15:05;0.77;;;0.77;;
41865;SDS011;27539;43.222;27.558;2023-05-24T08:17:30;2.00;;;1.27;;
41865;SDS011;27539;43.222;27.558;2023-05-24T08:19:56;1.73;;;1.20;;
41865;SDS011;27539;43.222;27.558;2023-05-24T08:22:21;5.07;;;1.40;;
41865;SDS011;27539;43.222;27.558;2023-05-24T08:24:46;0.97;;;0.73;;
41865;SDS011;27539;43.222;27.558;2023-05-24T08:27:12;2.27;;;1.23;;
41865;SDS011;27539;43.222;27.558;2023-05-24T08:29:38;2.07;;;1.03;;
41865;SDS011;27539;43.222;27.558;2023-05-24T08:32:03;1.83;;;1.17;;
41865;SDS011;27539;43.222;27.558;2023-05-24T08:34:33;2.85;;;1.25;;
41865;SDS011;27539;43.222;27.558;2023-05-24T08:37:00;2.00;;;0.98;;
41865;SDS011;27539;43.222;27.558;2023-05-24T08:39:26;2.23;;;1.10;;
41865;SDS011;27539;43.222;27.558;2023-05-24T08:41:51;1.00;;;1.00;;
41865;SDS011;27539;43.222;27.558;2023-05-24T08:44:16;0.83;;;0.70;;
41865;SDS011;27539;43.222;27.558;2023-05-24T08:46:42;1.67;;;1.00;;
41865;SDS011;27539;43.222;27.558;2023-05-24T08:49:08;0.80;;;0.80;;
41865;SDS011;27539;43.222;27.558;2023-05-24T08:51:36;2.70;;;1.10;;
41865;SDS011;27539;43.222;27.558;2023-05-24T08:54:02;1.77;;;1.00;;
41865;SDS011;27539;43.222;27.558;2023-05-24T08:56:29;2.17;;;1.27;;
41865;SDS011;27539;43.222;27.558;2023-05-24T08:58:54;1.00;;;0.67;;
41865;SDS011;27539;43.222;27.558;2023-05-24T09:01:20;1.07;;;1.00;;
41865;SDS011;27539;43.222;27.558;2023-05-24T09:03:46;1.00;;;0.90;;
41865;SDS011;27539;43.222;27.558;2023-05-24T09:06:11;8.83;;;1.37;;
41865;SDS011;27539;43.222;27.558;2023-05-24T09:08:37;0.70;;;0.63;;
41865;SDS011;27539;43.222;27.558;2023-05-24T09:11:03;10.03;;;0.90;;
41865;SDS011;27539;43.222;27.558;2023-05-24T09:13:29;8.05;;;1.27;;
41865;SDS011;27539;43.222;27.558;2023-05-24T09:15:55;2.00;;;1.33;;
41865;SDS011;27539;43.222;27.558;2023-05-24T09:18:21;4.20;;;1.58;;
41865;SDS011;27539;43.222;27.558;2023-05-24T09:20:47;13.13;;;1.50;;
41865;SDS011;27539;43.222;27.558;2023-05-24T09:23:12;1.93;;;1.67;;
41865;SDS011;27539;43.222;27.558;2023-05-24T09:25:42;6.47;;;1.80;;
41865;SDS011;27539;43.222;27.558;2023-05-24T09:28:08;2.10;;;1.70;;
41865;SDS011;27539;43.222;27.558;2023-05-24T09:30:33;2.63;;;2.07;;
41865;SDS011;27539;43.222;27.558;2023-05-24T09:32:59;11.77;;;2.60;;
41865;SDS011;27539;43.222;27.558;2023-05-24T09:35:28;3.47;;;1.60;;
41865;SDS011;27539;43.222;27.558;2023-05-24T09:37:54;3.85;;;1.80;;
41865;SDS011;27539;43.222;27.558;2023-05-24T09:40:21;5.97;;;1.85;;
41865;SDS011;27539;43.222;27.558;2023-05-24T09:42:46;6.10;;;3.13;;
41865;SDS011;27539;43.222;27.558;2023-05-24T09:45:15;7.43;;;2.20;;
41865;SDS011;27539;43.222;27.558;2023-05-24T09:47:41;2.38;;;1.75;;
41865;SDS011;27539;43.222;27.558;2023-05-24T09:50:13;4.60;;;3.10;;
41865;SDS011;27539;43.222;27.558;2023-05-24T09:52:39;4.32;;;1.90;;
41865;SDS011;27539;43.222;27.558;2023-05-24T09:57:37;2.10;;;1.70;;
41865;SDS011;27539;43.222;27.558;2023-05-24T10:00:11;3.60;;;2.00;;
41865;SDS011;27539;43.222;27.558;2023-05-24T10:02:45;2.25;;;2.00;;
41865;SDS011;27539;43.222;27.558;2023-05-24T10:05:13;2.60;;;1.53;;
41865;SDS011;27539;43.222;27.558;2023-05-24T10:07:39;3.92;;;2.28;;
41865;SDS011;27539;43.222;27.558;2023-05-24T10:10:05;3.67;;;2.33;;
41865;SDS011;27539;43.222;27.558;2023-05-24T10:12:32;3.60;;;1.85;;
41865;SDS011;27539;43.222;27.558;2023-05-24T10:14:57;1.92;;;1.52;;
41865;SDS011;27539;43.222;27.558;2023-05-24T10:17:23;1.65;;;1.55;;
41865;SDS011;27539;43.222;27.558;2023-05-24T10:19:51;0.82;;;0.70;;
41865;SDS011;27539;43.222;27.558;2023-05-24T10:22:17;2.27;;;0.87;;
41865;SDS011;27539;43.222;27.558;2023-05-24T10:24:46;2.90;;;1.40;;
41865;SDS011;27539;43.222;27.558;2023-05-24T10:27:13;0.70;;;0.70;;
41865;SDS011;27539;43.222;27.558;2023-05-24T10:32:05;2.08;;;0.50;;
41865;SDS011;27539;43.222;27.558;2023-05-24T10:34:31;2.23;;;0.70;;
41865;SDS011;27539;43.222;27.558;2023-05-24T10:36:57;0.50;;;0.50;;
41865;SDS011;27539;43.222;27.558;2023-05-24T10:39:23;1.05;;;0.22;;
41865;SDS011;27539;43.222;27.558;2023-05-24T10:41:49;0.47;;;0.43;;
41865;SDS011;27539;43.222;27.558;2023-05-24T10:44:17;1.80;;;1.10;;
41865;SDS011;27539;43.222;27.558;2023-05-24T10:47:02;1.67;;;0.73;;
41865;SDS011;27539;43.222;27.558;2023-05-24T10:49:30;0.95;;;0.85;;
41865;SDS011;27539;43.222;27.558;2023-05-24T10:52:09;1.47;;;1.20;;
41865;SDS011;27539;43.222;27.558;2023-05-24T10:54:34;1.02;;;0.63;;
41865;SDS011;27539;43.222;27.558;2023-05-24T10:57:02;3.67;;;2.35;;
41865;SDS011;27539;43.222;27.558;2023-05-24T10:59:35;2.50;;;1.60;;
41865;SDS011;27539;43.222;27.558;2023-05-24T11:02:07;1.67;;;1.08;;
41865;SDS011;27539;43.222;27.558;2023-05-24T11:04:46;2.05;;;0.73;;
41865;SDS011;27539;43.222;27.558;2023-05-24T11:07:13;0.63;;;0.63;;
41865;SDS011;27539;43.222;27.558;2023-05-24T11:09:39;2.47;;;1.65;;
41865;SDS011;27539;43.222;27.558;2023-05-24T11:12:14;1.92;;;1.02;;
41865;SDS011;27539;43.222;27.558;2023-05-24T11:14:41;3.13;;;0.80;;
41865;SDS011;27539;43.222;27.558;2023-05-24T11:17:10;1.05;;;0.95;;
41865;SDS011;27539;43.222;27.558;2023-05-24T11:19:37;0.93;;;0.83;;
41865;SDS011;27539;43.222;27.558;2023-05-24T11:22:03;2.15;;;1.10;;
41865;SDS011;27539;43.222;27.558;2023-05-24T11:24:30;1.50;;;0.77;;
41865;SDS011;27539;43.222;27.558;2023-05-24T11:26:56;3.72;;;1.00;;
41865;SDS011;27539;43.222;27.558;2023-05-24T11:29:22;1.70;;;1.33;;
41865;SDS011;27539;43.222;27.558;2023-05-24T11:34:13;3.40;;;1.30;;
41865;SDS011;27539;43.222;27.558;2023-05-24T11:36:38;1.47;;;0.90;;
41865;SDS011;27539;43.222;27.558;2023-05-24T11:39:07;3.03;;;1.65;;
41865;SDS011;27539;43.222;27.558;2023-05-24T11:41:34;3.95;;;2.15;;
41865;SDS011;27539;43.222;27.558;2023-05-24T11:44:00;2.80;;;1.77;;
41865;SDS011;27539;43.222;27.558;2023-05-24T11:46:26;7.30;;;2.63;;
41865;SDS011;27539;43.222;27.558;2023-05-24T11:48:55;4.20;;;2.03;;
41865;SDS011;27539;43.222;27.558;2023-05-24T11:51:24;4.47;;;2.78;;
41865;SDS011;27539;43.222;27.558;2023-05-24T11:53:49;3.63;;;2.03;;
41865;SDS011;27539;43.222;27.558;2023-05-24T11:56:15;7.10;;;2.00;;
41865;SDS011;27539;43.222;27.558;2023-05-24T11:58:43;4.53;;;2.60;;
41865;SDS011;27539;43.222;27.558;2023-05-24T12:01:22;2.15;;;1.60;;
41865;SDS011;27539;43.222;27.558;2023-05-24T12:03:49;1.42;;;1.02;;
41865;SDS011;27539;43.222;27.558;2023-05-24T12:06:14;1.80;;;1.00;;
41865;SDS011;27539;43.222;27.558;2023-05-24T12:08:40;1.20;;;1.10;;
41865;SDS011;27539;43.222;27.558;2023-05-24T12:11:05;1.73;;;1.27;;
41865;SDS011;27539;43.222;27.558;2023-05-24T12:13:31;1.80;;;1.40;;
41865;SDS011;27539;43.222;27.558;2023-05-24T12:15:56;3.17;;;1.40;;
41865;SDS011;27539;43.222;27.558;2023-05-24T12:18:22;1.60;;;1.17;;
41865;SDS011;27539;43.222;27.558;2023-05-24T12:20:48;1.52;;;1.33;;
41865;SDS011;27539;43.222;27.558;2023-05-24T12:23:14;2.77;;;0.90;;
41865;SDS011;27539;43.222;27.558;2023-05-24T12:25:39;0.73;;;0.73;;
41865;SDS011;27539;43.222;27.558;2023-05-24T12:28:05;1.57;;;1.10;;
41865;SDS011;27539;43.222;27.558;2023-05-24T12:30:30;2.00;;;1.07;;
41865;SDS011;27539;43.222;27.558;2023-05-24T12:32:55;1.57;;;1.23;;
41865;SDS011;27539;43.222;27.558;2023-05-24T12:35:21;1.40;;;1.23;;
41865;SDS011;27539;43.222;27.558;2023-05-24T12:37:47;0.80;;;0.80;;
41865;SDS011;27539;43.222;27.558;2023-05-24T12:40:19;0.93;;;0.70;;
41865;SDS011;27539;43.222;27.558;2023-05-24T12:42:54;3.55;;;1.40;;
41865;SDS011;27539;43.222;27.558;2023-05-24T12:45:21;3.95;;;1.30;;
41865;SDS011;27539;43.222;27.558;2023-05-24T12:47:51;1.02;;;0.93;;
41865;SDS011;27539;43.222;27.558;2023-05-24T12:50:17;1.10;;;1.00;;
41865;SDS011;27539;43.222;27.558;2023-05-24T12:52:43;1.57;;;0.80;;
41865;SDS011;27539;43.222;27.558;2023-05-24T12:55:11;1.77;;;1.00;;
41865;SDS011;27539;43.222;27.558;2023-05-24T12:57:36;1.17;;;1.07;;
41865;SDS011;27539;43.222;27.558;2023-05-24T13:00:02;1.33;;;1.10;;
41865;SDS011;27539;43.222;27.558;2023-05-24T13:02:28;1.70;;;1.13;;
41865;SDS011;27539;43.222;27.558;2023-05-24T13:04:53;4.00;;;1.30;;
41865;SDS011;27539;43.222;27.558;2023-05-24T13:07:18;2.03;;;1.30;;
41865;SDS011;27539;43.222;27.558;2023-05-24T13:09:44;1.07;;;0.97;;
41865;SDS011;27539;43.222;27.558;2023-05-24T13:12:09;0.97;;;0.87;;
41865;SDS011;27539;43.222;27.558;2023-05-24T13:14:35;1.00;;;1.00;;
41865;SDS011;27539;43.222;27.558;2023-05-24T13:17:00;1.43;;;1.10;;
41865;SDS011;27539;43.222;27.558;2023-05-24T13:19:25;2.87;;;1.80;;
41865;SDS011;27539;43.222;27.558;2023-05-24T13:21:51;1.27;;;1.00;;
41865;SDS011;27539;43.222;27.558;2023-05-24T13:24:16;2.53;;;1.17;;
41865;SDS011;27539;43.222;27.558;2023-05-24T13:26:42;1.30;;;1.20;;
41865;SDS011;27539;43.222;27.558;2023-05-24T13:29:07;3.53;;;1.30;;
41865;SDS011;27539;43.222;27.558;2023-05-24T13:31:32;1.60;;;1.17;;
41865;SDS011;27539;43.222;27.558;2023-05-24T13:33:58;1.87;;;1.07;;
41865;SDS011;27539;43.222;27.558;2023-05-24T13:36:23;1.23;;;0.97;;
41865;SDS011;27539;43.222;27.558;2023-05-24T13:38:48;1.27;;;1.17;;
41865;SDS011;27539;43.222;27.558;2023-05-24T13:41:13;1.53;;;1.30;;
41865;SDS011;27539;43.222;27.558;2023-05-24T13:43:39;2.07;;;1.60;;
41865;SDS011;27539;43.222;27.558;2023-05-24T13:46:04;2.93;;;2.07;;
41865;SDS011;27539;43.222;27.558;2023-05-24T13:48:29;2.70;;;1.40;;
41865;SDS011;27539;43.222;27.558;2023-05-24T13:50:55;1.10;;;0.93;;
41865;SDS011;27539;43.222;27.558;2023-05-24T13:53:20;0.93;;;0.90;;
41865;SDS011;27539;43.222;27.558;2023-05-24T13:55:46;3.57;;;1.50;;
41865;SDS011;27539;43.222;27.558;2023-05-24T13:58:12;1.37;;;1.20;;
41865;SDS011;27539;43.222;27.558;2023-05-24T14:00:37;1.13;;;0.90;;
41865;SDS011;27539;43.222;27.558;2023-05-24T14:03:02;1.30;;;1.20;;
41865;SDS011;27539;43.222;27.558;2023-05-24T14:05:29;2.70;;;1.17;;
41865;SDS011;27539;43.222;27.558;2023-05-24T14:07:55;1.17;;;0.87;;
41865;SDS011;27539;43.222;27.558;2023-05-24T14:12:47;0.73;;;0.73;;
41865;SDS011;27539;43.222;27.558;2023-05-24T14:15:12;1.07;;;0.97;;
41865;SDS011;27539;43.222;27.558;2023-05-24T14:17:38;6.00;;;1.50;;
41865;SDS011;27539;43.222;27.558;2023-05-24T14:20:03;0.87;;;0.77;;
41865;SDS011;27539;43.222;27.558;2023-05-24T14:22:29;0.83;;;0.83;;
41865;SDS011;27539;43.222;27.558;2023-05-24T14:24:54;2.13;;;0.93;;
41865;SDS011;27539;43.222;27.558;2023-05-24T14:27:20;1.03;;;0.50;;
41865;SDS011;27539;43.222;27.558;2023-05-24T14:29:45;1.27;;;1.07;;
41865;SDS011;27539;43.222;27.558;2023-05-24T14:32:11;0.80;;;0.77;;
41865;SDS011;27539;43.222;27.558;2023-05-24T14:34:37;0.83;;;0.83;;
41865;SDS011;27539;43.222;27.558;2023-05-24T14:37:02;0.57;;;0.57;;
41865;SDS011;27539;43.222;27.558;2023-05-24T14:39:27;1.00;;;0.77;;
41865;SDS011;27539;43.222;27.558;2023-05-24T14:41:53;0.83;;;0.73;;
41865;SDS011;27539;43.222;27.558;2023-05-24T14:44:18;0.63;;;0.63;;
41865;SDS011;27539;43.222;27.558;2023-05-24T14:46:44;1.13;;;0.80;;
41865;SDS011;27539;43.222;27.558;2023-05-24T14:49:10;3.65;;;0.68;;
41865;SDS011;27539;43.222;27.558;2023-05-24T14:51:35;1.50;;;1.27;;